createdAt,value
2019-03-20T00:01:44.341Z,7.47
2019-03-20T00:04:13.124Z,6.78
2019-03-20T00:06:50.884Z,6.33
2019-03-20T00:09:43.448Z,7.00
2019-03-20T00:12:12.015Z,7.65
2019-03-20T00:14:41.170Z,6.70
2019-03-20T00:17:10.277Z,7.58
2019-03-20T00:19:39.356Z,7.15
2019-03-20T00:22:07.760Z,7.92
2019-03-20T00:24:36.988Z,7.03
2019-03-20T00:27:08.345Z,7.58
2019-03-20T00:29:57.958Z,8.45
2019-03-20T00:32:27.597Z,7.20
2019-03-20T00:35:00.762Z,7.87
2019-03-20T00:37:27.584Z,8.10
2019-03-20T00:39:56.822Z,8.55
2019-03-20T00:42:35.435Z,8.28
2019-03-20T00:45:03.915Z,8.43
2019-03-20T00:47:33.457Z,8.08
2019-03-20T00:50:02.591Z,6.53
2019-03-20T00:52:31.240Z,5.35
2019-03-20T00:55:00.551Z,6.80
2019-03-20T00:57:29.557Z,5.47
2019-03-20T00:59:58.569Z,6.03
2019-03-20T01:02:27.632Z,7.87
2019-03-20T01:04:56.841Z,6.40
2019-03-20T01:07:25.965Z,7.58
2019-03-20T01:09:55.204Z,7.30
2019-03-20T01:12:24.520Z,6.28
2019-03-20T01:14:53.196Z,6.83
2019-03-20T01:17:22.442Z,7.15
2019-03-20T01:19:51.594Z,6.67
2019-03-20T01:22:20.687Z,7.42
2019-03-20T01:24:49.739Z,7.05
2019-03-20T01:27:19.114Z,6.53
2019-03-20T01:29:48.094Z,6.67
2019-03-20T01:32:20.470Z,7.17
2019-03-20T01:34:49.230Z,6.70
2019-03-20T01:37:25.933Z,7.25
2019-03-20T01:39:55.269Z,6.53
2019-03-20T01:42:35.686Z,6.87
2019-03-20T01:45:10.397Z,6.00
2019-03-20T01:47:39.601Z,6.08
2019-03-20T01:50:08.899Z,5.70
2019-03-20T01:52:37.785Z,5.58
2019-03-20T01:55:07.271Z,6.22
2019-03-20T01:57:44.184Z,6.15
2019-03-20T02:00:22.101Z,6.85
2019-03-20T02:02:55.284Z,6.45
2019-03-20T02:05:35.673Z,6.47
2019-03-20T02:08:03.214Z,6.37
2019-03-20T02:10:32.313Z,7.40
2019-03-20T02:13:02.065Z,6.28
2019-03-20T02:15:38.597Z,7.60
2019-03-20T02:18:01.963Z,6.50
2019-03-20T02:20:41.675Z,6.80
2019-03-20T02:23:10.877Z,7.78
2019-03-20T02:25:51.538Z,7.22
2019-03-20T02:28:30.776Z,6.67
2019-03-20T02:31:00.617Z,7.05
2019-03-20T02:33:33.313Z,7.12
2019-03-20T02:36:02.192Z,8.38
2019-03-20T02:38:30.887Z,7.08
2019-03-20T02:41:00.359Z,8.03
2019-03-20T02:43:39.716Z,7.10
2019-03-20T02:46:17.067Z,8.48
2019-03-20T02:48:50.239Z,7.17
2019-03-20T02:51:26.821Z,7.28
2019-03-20T02:54:05.799Z,7.72
2019-03-20T02:56:34.502Z,7.50
2019-03-20T02:59:08.307Z,6.30
2019-03-20T03:01:40.263Z,6.30
2019-03-20T03:04:09.325Z,8.45
2019-03-20T03:06:38.137Z,7.05
2019-03-20T03:09:10.131Z,6.80
2019-03-20T03:11:38.817Z,7.65
2019-03-20T03:14:08.190Z,7.08
2019-03-20T03:16:45.061Z,7.65
2019-03-20T03:19:16.472Z,7.05
2019-03-20T03:21:50.605Z,6.35
2019-03-20T03:24:22.764Z,7.58
2019-03-20T03:26:52.858Z,6.80
2019-03-20T03:29:46.022Z,6.92
2019-03-20T03:32:16.616Z,7.00
2019-03-20T03:34:45.575Z,6.70
2019-03-20T03:37:17.205Z,6.55
2019-03-20T03:39:45.836Z,7.20
2019-03-20T03:42:18.986Z,7.70
2019-03-20T03:44:47.899Z,7.00
2019-03-20T03:47:21.361Z,6.78
2019-03-20T03:49:55.891Z,6.90
2019-03-20T03:52:43.804Z,5.83
2019-03-20T03:55:30.362Z,6.60
2019-03-20T03:58:12.072Z,8.35
2019-03-20T04:00:52.693Z,7.40
2019-03-20T04:03:26.149Z,6.67
2019-03-20T04:06:00.634Z,7.90
2019-03-20T04:08:30.804Z,6.15
2019-03-20T04:11:02.755Z,6.83
2019-03-20T04:13:36.070Z,6.30
2019-03-20T04:16:05.786Z,6.67
2019-03-20T04:18:43.521Z,6.80
2019-03-20T04:21:12.334Z,6.47
2019-03-20T04:23:44.760Z,6.00
2019-03-20T04:26:55.341Z,6.87
2019-03-20T04:29:43.874Z,6.83
2019-03-20T04:32:15.133Z,6.58
2019-03-20T04:34:44.385Z,5.83
2019-03-20T04:37:19.210Z,5.53
2019-03-20T04:39:48.606Z,6.12
2019-03-20T04:42:18.039Z,6.85
2019-03-20T04:44:47.438Z,6.67
2019-03-20T04:47:19.099Z,6.92
2019-03-20T04:50:00.723Z,7.08
2019-03-20T04:52:34.604Z,6.90
2019-03-20T04:55:04.395Z,6.03
2019-03-20T04:57:33.175Z,5.83
2019-03-20T05:00:03.892Z,7.30
2019-03-20T05:02:34.751Z,6.67
2019-03-20T05:05:07.241Z,7.55
2019-03-20T05:07:38.202Z,6.35
2019-03-20T05:10:08.805Z,6.12
2019-03-20T05:12:37.935Z,6.03
2019-03-20T05:15:13.690Z,6.03
2019-03-20T05:17:42.098Z,6.55
2019-03-20T05:20:16.392Z,6.30
2019-03-20T05:22:45.004Z,6.55
2019-03-20T05:25:14.156Z,5.80
2019-03-20T05:27:46.300Z,6.67
2019-03-20T05:30:15.545Z,5.85
2019-03-20T05:32:59.006Z,6.25
2019-03-20T05:35:41.933Z,6.97
2019-03-20T05:38:28.380Z,5.25
2019-03-20T05:41:29.152Z,5.75
2019-03-20T05:44:00.495Z,6.17
2019-03-20T05:46:32.130Z,7.15
2019-03-20T05:49:02.450Z,7.05
2019-03-20T05:51:54.508Z,7.35
2019-03-20T05:54:26.909Z,8.50
2019-03-20T05:57:17.753Z,8.73
2019-03-20T06:00:05.736Z,6.78
2019-03-20T06:02:38.132Z,6.67
2019-03-20T06:05:07.641Z,7.25
2019-03-20T06:07:36.972Z,7.83
2019-03-20T06:10:24.644Z,7.85
2019-03-20T06:13:03.046Z,6.12
2019-03-20T06:15:34.462Z,7.65
2019-03-20T06:18:03.572Z,8.88
2019-03-20T06:20:33.827Z,7.92
2019-03-20T06:23:12.014Z,8.00
2019-03-20T06:25:41.241Z,8.45
2019-03-20T06:28:09.909Z,8.60
2019-03-20T06:30:39.138Z,8.65
2019-03-20T06:33:15.226Z,6.50
2019-03-20T06:35:47.357Z,7.80
2019-03-20T06:38:16.552Z,7.17
2019-03-20T06:40:45.465Z,7.55
2019-03-20T06:43:14.557Z,8.75
2019-03-20T06:45:43.650Z,9.38
2019-03-20T06:48:12.811Z,8.58
2019-03-20T06:50:41.984Z,9.18
2019-03-20T06:53:10.764Z,8.58
2019-03-20T06:55:39.394Z,9.78
2019-03-20T06:58:08.668Z,10.63
2019-03-20T07:01:06.812Z,9.60
2019-03-20T07:03:58.528Z,10.20
2019-03-20T07:06:35.534Z,8.18
2019-03-20T07:09:24.222Z,8.50
2019-03-20T07:11:53.318Z,9.00
2019-03-20T07:14:22.553Z,9.60
2019-03-20T07:16:51.682Z,8.55
2019-03-20T07:19:24.563Z,9.75
2019-03-20T07:21:53.329Z,9.90
2019-03-20T07:24:22.300Z,9.50
2019-03-20T07:26:53.868Z,9.83
2019-03-20T07:29:23.054Z,9.95
2019-03-20T07:31:52.839Z,9.17
2019-03-20T07:34:21.504Z,7.97
2019-03-20T07:36:49.975Z,8.47
2019-03-20T07:39:19.558Z,7.57
2019-03-20T07:41:48.438Z,7.80
2019-03-20T07:44:17.689Z,7.43
2019-03-20T07:46:49.487Z,6.40
2019-03-20T07:49:20.358Z,6.97
2019-03-20T07:51:50.363Z,7.47
2019-03-20T07:54:22.897Z,8.20
2019-03-20T07:56:52.400Z,6.90
2019-03-20T07:59:21.564Z,7.50
2019-03-20T08:01:50.795Z,7.93
2019-03-20T08:04:20.365Z,7.30
2019-03-20T08:06:49.076Z,8.17
2019-03-20T08:09:18.035Z,7.93
2019-03-20T08:11:48.281Z,8.27
2019-03-20T08:14:17.852Z,7.90
2019-03-20T08:16:47.370Z,8.10
2019-03-20T08:19:16.591Z,8.90
2019-03-20T08:21:45.969Z,7.73
2019-03-20T08:24:15.146Z,7.30
2019-03-20T08:26:44.220Z,7.00
2019-03-20T08:29:12.925Z,7.00
2019-03-20T08:31:42.100Z,7.30
2019-03-20T08:34:11.456Z,7.37
2019-03-20T08:36:40.547Z,6.90
2019-03-20T08:39:10.023Z,6.73
2019-03-20T08:41:39.845Z,7.30
2019-03-20T08:44:12.496Z,6.87
2019-03-20T08:46:41.431Z,6.50
2019-03-20T08:49:10.809Z,6.40
2019-03-20T08:51:41.159Z,5.53
2019-03-20T08:54:11.417Z,6.40
2019-03-20T08:56:42.093Z,5.23
2019-03-20T08:59:11.552Z,6.50
2019-03-20T09:01:43.443Z,6.20
2019-03-20T09:04:13.156Z,5.77
2019-03-20T09:06:41.943Z,5.73
2019-03-20T09:09:14.461Z,5.23
2019-03-20T09:11:44.345Z,5.40
2019-03-20T09:14:12.824Z,5.07
2019-03-20T09:16:41.538Z,5.70
2019-03-20T09:19:10.735Z,5.17
2019-03-20T09:21:39.982Z,5.13
2019-03-20T09:24:10.774Z,3.93
2019-03-20T09:26:39.916Z,5.40
2019-03-20T09:29:18.246Z,4.83
2019-03-20T09:31:39.704Z,4.70
2019-03-20T09:34:08.563Z,5.20
2019-03-20T09:36:43.128Z,4.30
2019-03-20T09:39:08.903Z,3.80
2019-03-20T09:41:38.174Z,4.10
2019-03-20T09:44:08.590Z,4.60
2019-03-20T09:46:37.640Z,4.10
2019-03-20T09:49:06.711Z,4.10
2019-03-20T09:51:35.629Z,3.97
2019-03-20T09:54:04.686Z,4.60
2019-03-20T09:56:34.051Z,3.60
2019-03-20T09:59:02.674Z,4.70
2019-03-20T10:01:31.621Z,3.57
2019-03-20T10:04:00.609Z,3.93
2019-03-20T10:06:30.271Z,3.80
2019-03-20T10:09:01.861Z,3.23
2019-03-20T10:11:30.354Z,3.40
2019-03-20T10:13:59.415Z,3.57
2019-03-20T10:16:28.527Z,3.33
2019-03-20T10:18:57.479Z,2.73
2019-03-20T10:21:26.083Z,2.40
2019-03-20T10:23:55.341Z,3.03
2019-03-20T10:26:26.959Z,3.13
2019-03-20T10:28:56.219Z,3.00
2019-03-20T10:31:25.358Z,3.23
2019-03-20T10:33:54.003Z,2.67
2019-03-20T10:36:22.874Z,2.33
2019-03-20T10:38:51.992Z,3.10
2019-03-20T10:41:21.061Z,2.67
2019-03-20T10:43:52.170Z,2.83
2019-03-20T10:46:20.348Z,2.70
2019-03-20T10:48:49.438Z,3.00
2019-03-20T10:51:18.445Z,2.67
2019-03-20T10:53:47.655Z,2.70
2019-03-20T10:56:16.655Z,3.00
2019-03-20T10:58:45.649Z,3.00
2019-03-20T11:01:14.721Z,2.77
2019-03-20T11:03:43.781Z,3.03
2019-03-20T11:06:12.404Z,3.00
2019-03-20T11:08:41.373Z,3.27
2019-03-20T11:11:10.912Z,2.73
2019-03-20T11:13:39.790Z,2.40
2019-03-20T11:16:08.673Z,3.10
2019-03-20T11:18:37.927Z,3.37
2019-03-20T11:21:07.141Z,2.80
2019-03-20T11:23:36.471Z,4.17
2019-03-20T11:26:05.494Z,3.20
2019-03-20T11:28:34.320Z,3.20
2019-03-20T11:31:03.562Z,2.57
2019-03-20T11:33:32.730Z,2.40
2019-03-20T11:36:01.907Z,2.40
2019-03-20T11:38:30.893Z,3.13
2019-03-20T11:40:59.912Z,3.30
2019-03-20T11:43:29.171Z,2.90
2019-03-20T11:45:58.685Z,2.70
2019-03-20T11:48:27.305Z,3.50
2019-03-20T11:50:56.436Z,2.93
2019-03-20T11:53:25.033Z,2.77
2019-03-20T11:55:54.136Z,2.60
2019-03-20T11:58:23.185Z,3.30
2019-03-20T12:00:53.742Z,3.43
2019-03-20T12:03:25.172Z,3.40
2019-03-20T12:05:54.254Z,3.07
2019-03-20T12:08:23.076Z,3.00
2019-03-20T12:10:51.828Z,3.10
2019-03-20T12:13:20.929Z,3.30
2019-03-20T12:15:50.124Z,3.30
2019-03-20T12:18:19.087Z,2.60
2019-03-20T12:20:48.171Z,3.80
2019-03-20T12:23:17.101Z,2.97
2019-03-20T12:25:46.253Z,3.60
2019-03-20T12:28:15.384Z,3.80
2019-03-20T12:30:44.058Z,3.30
2019-03-20T12:33:13.288Z,2.77
2019-03-20T12:35:42.530Z,3.83
2019-03-20T12:38:15.332Z,3.90
2019-03-20T12:40:43.547Z,4.03
2019-03-20T12:43:12.811Z,4.83
2019-03-20T12:45:42.025Z,3.77
2019-03-20T12:48:11.136Z,4.77
2019-03-20T12:50:40.263Z,4.03
2019-03-20T12:53:08.717Z,4.50
2019-03-20T12:55:38.959Z,4.30
2019-03-20T12:58:08.256Z,3.90
2019-03-20T13:00:37.325Z,3.83
2019-03-20T13:03:06.649Z,3.57
2019-03-20T13:05:36.477Z,3.80
2019-03-20T13:08:06.348Z,4.60
2019-03-20T13:10:35.863Z,3.93
2019-03-20T13:13:06.577Z,3.97
2019-03-20T13:15:37.471Z,3.30
2019-03-20T13:18:06.610Z,3.57
2019-03-20T13:20:35.875Z,3.53
2019-03-20T13:23:07.739Z,3.03
2019-03-20T13:25:36.859Z,3.83
2019-03-20T13:28:05.750Z,4.20
2019-03-20T13:30:37.779Z,4.00
2019-03-20T13:33:07.189Z,3.97
2019-03-20T13:35:36.516Z,3.83
2019-03-20T13:38:05.281Z,4.10
2019-03-20T13:40:34.465Z,3.63
2019-03-20T13:43:03.653Z,4.13
2019-03-20T13:45:51.476Z,3.90
2019-03-20T13:48:20.970Z,3.70
2019-03-20T13:50:50.207Z,3.77
2019-03-20T13:53:19.310Z,4.30
2019-03-20T13:55:48.655Z,3.37
2019-03-20T13:58:17.432Z,4.00
2019-03-20T14:00:46.220Z,3.03
2019-03-20T14:03:15.257Z,3.30
2019-03-20T14:05:44.208Z,3.10
2019-03-20T14:08:13.188Z,3.80
2019-03-20T14:10:50.323Z,3.83
2019-03-20T14:13:13.148Z,4.43
2019-03-20T14:15:41.829Z,3.30
2019-03-20T14:18:11.125Z,3.80
2019-03-20T14:20:40.159Z,3.90
2019-03-20T14:23:09.267Z,3.90
2019-03-20T14:25:38.072Z,3.47
2019-03-20T14:28:07.241Z,3.47
2019-03-20T14:30:36.349Z,3.83
2019-03-20T14:33:05.198Z,4.10
2019-03-20T14:35:34.938Z,5.77
2019-03-20T14:38:04.124Z,3.57
2019-03-20T14:40:36.897Z,3.10
2019-03-20T14:43:04.320Z,4.07
2019-03-20T14:45:33.167Z,3.70
2019-03-20T14:48:03.765Z,3.27
2019-03-20T14:50:33.191Z,3.93
2019-03-20T14:53:02.566Z,4.00
2019-03-20T14:55:31.296Z,3.80
2019-03-20T14:57:59.928Z,3.63
2019-03-20T15:00:29.019Z,4.10
2019-03-20T15:02:58.225Z,4.03
2019-03-20T15:05:27.467Z,3.80
2019-03-20T15:07:55.984Z,3.50
2019-03-20T15:10:24.891Z,3.93
2019-03-20T15:12:54.097Z,4.30
2019-03-20T15:15:29.630Z,3.90
2019-03-20T15:17:58.524Z,4.40
2019-03-20T15:20:27.365Z,4.93
2019-03-20T15:22:56.211Z,4.80
2019-03-20T15:25:26.094Z,4.20
2019-03-20T15:27:55.249Z,4.67
2019-03-20T15:30:23.976Z,4.10
2019-03-20T15:32:52.917Z,4.40
2019-03-20T15:35:21.882Z,4.47
2019-03-20T15:37:51.056Z,4.07
2019-03-20T15:40:20.266Z,4.70
2019-03-20T15:42:49.460Z,4.17
2019-03-20T15:45:18.025Z,3.80
2019-03-20T15:47:55.863Z,3.60
2019-03-20T15:50:24.935Z,4.67
2019-03-20T15:52:53.660Z,4.73
2019-03-20T15:55:24.946Z,4.27
2019-03-20T15:57:54.025Z,5.30
2019-03-20T16:00:22.984Z,4.70
2019-03-20T16:02:53.460Z,4.13
2019-03-20T16:05:22.588Z,4.10
2019-03-20T16:07:51.697Z,4.07
2019-03-20T16:10:21.533Z,3.83
2019-03-20T16:12:50.593Z,3.80
2019-03-20T16:15:19.503Z,3.83
2019-03-20T16:17:48.711Z,4.10
2019-03-20T16:20:17.652Z,4.67
2019-03-20T16:22:47.074Z,5.17
2019-03-20T16:25:16.569Z,4.00
2019-03-20T16:27:47.056Z,4.17
2019-03-20T16:30:19.107Z,4.37
2019-03-20T16:32:48.213Z,4.23
2019-03-20T16:35:17.477Z,3.90
2019-03-20T16:37:46.301Z,4.20
2019-03-20T16:40:17.245Z,4.70
2019-03-20T16:42:46.542Z,5.17
2019-03-20T16:45:17.857Z,3.93
2019-03-20T16:47:47.006Z,4.90
2019-03-20T16:50:16.685Z,4.90
2019-03-20T16:52:45.886Z,4.70
2019-03-20T16:55:15.281Z,4.93
2019-03-20T16:57:44.888Z,4.90
2019-03-20T17:00:18.253Z,4.47
2019-03-20T17:02:48.119Z,5.03
2019-03-20T17:05:17.384Z,5.13
2019-03-20T17:07:46.275Z,5.27
2019-03-20T17:10:23.798Z,5.47
2019-03-20T17:12:52.895Z,5.10
2019-03-20T17:15:23.321Z,5.30
2019-03-20T17:17:52.115Z,5.90
2019-03-20T17:20:21.278Z,5.17
2019-03-20T17:22:50.020Z,6.10
2019-03-20T17:25:19.278Z,5.37
2019-03-20T17:27:48.889Z,5.70
2019-03-20T17:30:23.341Z,5.87
2019-03-20T17:32:51.813Z,4.83
2019-03-20T17:35:20.883Z,4.40
2019-03-20T17:37:51.437Z,5.10
2019-03-20T17:40:21.216Z,4.87
2019-03-20T17:42:50.618Z,4.60
2019-03-20T17:45:19.909Z,5.67
2019-03-20T17:47:49.310Z,6.40
2019-03-20T17:50:24.319Z,6.90
2019-03-20T17:52:53.398Z,7.67
2019-03-20T17:55:28.436Z,6.03
2019-03-20T17:57:57.559Z,6.43
2019-03-20T18:00:44.256Z,6.60
2019-03-20T18:03:13.287Z,6.43
2019-03-20T18:05:42.364Z,6.17
2019-03-20T18:08:11.208Z,6.47
2019-03-20T18:10:40.482Z,6.60
2019-03-20T18:13:10.107Z,6.47
2019-03-20T18:15:39.510Z,6.23
2019-03-20T18:18:08.800Z,6.20
2019-03-20T18:20:38.213Z,6.73
2019-03-20T18:23:08.061Z,6.13
2019-03-20T18:25:37.438Z,6.93
2019-03-20T18:28:06.563Z,6.63
2019-03-20T18:30:35.562Z,6.40
2019-03-20T18:33:09.427Z,5.90
2019-03-20T18:35:45.035Z,6.53
2019-03-20T18:38:14.055Z,6.40
2019-03-20T18:40:44.620Z,7.70
2019-03-20T18:43:13.777Z,6.93
2019-03-20T18:45:42.408Z,6.83
2019-03-20T18:48:11.609Z,7.30
2019-03-20T18:50:40.221Z,6.80
2019-03-20T18:53:10.057Z,6.70
2019-03-20T18:55:41.597Z,7.80
2019-03-20T18:58:16.319Z,6.60
2019-03-20T19:00:45.438Z,6.80
2019-03-20T19:03:19.629Z,7.13
2019-03-20T19:06:01.149Z,9.67
2019-03-20T19:08:30.586Z,8.17
2019-03-20T19:10:59.565Z,7.47
2019-03-20T19:13:28.636Z,6.50
2019-03-20T19:15:57.736Z,6.90
2019-03-20T19:18:26.887Z,7.07
2019-03-20T19:20:56.012Z,6.77
2019-03-20T19:23:25.175Z,7.13
2019-03-20T19:25:55.330Z,7.93
2019-03-20T19:28:24.578Z,9.33
2019-03-20T19:30:53.767Z,8.93
2019-03-20T19:33:22.808Z,7.67
2019-03-20T19:35:51.875Z,8.27
2019-03-20T19:38:20.766Z,6.30
2019-03-20T19:40:49.263Z,6.87
2019-03-20T19:43:18.419Z,5.80
2019-03-20T19:45:52.940Z,7.00
2019-03-20T19:48:21.546Z,7.10
2019-03-20T19:50:50.590Z,9.00
2019-03-20T19:53:24.686Z,8.13
2019-03-20T19:55:53.559Z,10.03
2019-03-20T19:58:22.930Z,7.97
2019-03-20T20:00:52.721Z,5.90
2019-03-20T20:03:21.111Z,6.95
2019-03-20T20:05:49.758Z,7.40
2019-03-20T20:08:18.404Z,7.10
2019-03-20T20:10:47.100Z,7.78
2019-03-20T20:13:15.850Z,7.87
2019-03-20T20:15:44.510Z,6.17
2019-03-20T20:18:13.128Z,8.13
2019-03-20T20:20:41.851Z,7.97
2019-03-20T20:23:10.540Z,6.20
2019-03-20T20:25:38.839Z,6.70
2019-03-20T20:28:07.488Z,8.40
2019-03-20T20:30:36.406Z,13.57
2019-03-20T20:33:05.166Z,12.37
2019-03-20T20:35:33.875Z,10.53
2019-03-20T20:38:02.818Z,10.85
2019-03-20T20:40:31.482Z,8.38
2019-03-20T20:43:00.355Z,7.95
2019-03-20T20:45:28.659Z,8.13
2019-03-20T20:47:57.386Z,8.95
2019-03-20T20:50:26.058Z,9.20
2019-03-20T20:52:54.764Z,7.75
2019-03-20T20:55:23.693Z,6.62
2019-03-20T20:57:52.542Z,6.17
2019-03-20T21:00:21.335Z,7.83
2019-03-20T21:02:50.136Z,7.45
2019-03-20T21:05:18.887Z,7.78
2019-03-20T21:07:47.273Z,7.47
2019-03-20T21:10:16.105Z,6.75
2019-03-20T21:12:55.660Z,9.48
2019-03-20T21:15:33.496Z,7.58
2019-03-20T21:18:40.514Z,6.47
2019-03-20T21:21:09.731Z,5.67
2019-03-20T21:24:14.612Z,5.60
2019-03-20T21:27:24.571Z,6.65
2019-03-20T21:30:33.650Z,6.55
2019-03-20T21:33:03.486Z,7.35
2019-03-20T21:36:41.164Z,6.37
2019-03-20T21:39:10.356Z,6.80
2019-03-20T21:42:11.799Z,5.72
2019-03-20T21:44:49.136Z,7.92
2019-03-20T21:47:32.034Z,7.08
2019-03-20T21:50:16.529Z,18.37
2019-03-20T21:52:45.736Z,13.15
2019-03-20T21:55:42.058Z,12.60
2019-03-20T21:58:19.281Z,10.32
2019-03-20T22:01:47.262Z,14.55
2019-03-20T22:04:16.438Z,12.18
2019-03-20T22:07:23.287Z,11.50
2019-03-20T22:10:42.033Z,11.60
2019-03-20T22:13:27.231Z,12.45
2019-03-20T22:16:33.077Z,12.93
2019-03-20T22:19:41.500Z,9.05
2019-03-20T22:22:51.351Z,7.70
2019-03-20T22:25:49.349Z,9.58
2019-03-20T22:29:14.796Z,8.88
2019-03-20T22:31:56.304Z,9.03
2019-03-20T22:35:11.964Z,11.63
2019-03-20T22:37:41.386Z,8.98
2019-03-20T22:40:53.469Z,9.60
2019-03-20T22:43:34.335Z,10.32
2019-03-20T22:46:59.247Z,10.10
2019-03-20T22:50:20.890Z,10.55
2019-03-20T22:53:32.391Z,10.40
2019-03-20T22:56:33.752Z,11.40
2019-03-20T22:59:03.116Z,10.35
2019-03-20T23:01:39.997Z,9.03
2019-03-20T23:04:13.942Z,10.45
2019-03-20T23:06:43.367Z,9.68
2019-03-20T23:09:12.794Z,9.78
2019-03-20T23:11:42.021Z,9.53
2019-03-20T23:14:13.021Z,10.18
2019-03-20T23:16:42.261Z,9.30
2019-03-20T23:19:11.643Z,9.20
2019-03-20T23:21:40.325Z,8.10
2019-03-20T23:24:09.705Z,10.48
2019-03-20T23:26:39.059Z,9.80
2019-03-20T23:29:08.363Z,10.40
2019-03-20T23:31:37.763Z,9.30
2019-03-20T23:34:07.076Z,9.55
2019-03-20T23:36:36.324Z,10.10
2019-03-20T23:39:08.453Z,10.35
2019-03-20T23:41:37.830Z,8.43
2019-03-20T23:44:06.396Z,8.13
2019-03-20T23:46:35.960Z,9.63
2019-03-20T23:49:12.009Z,8.70
2019-03-20T23:51:41.623Z,8.98
2019-03-20T23:54:11.996Z,8.65
2019-03-20T23:56:41.596Z,10.80
2019-03-20T23:59:11.277Z,12.88
